sensor_id;sensor_type;location;lat;lon;timestamp;P1;durP1;ratioP1;P2;durP2;ratioP2
24739;SDS011;45234;48.148;17.128;2023-11-19T00:00:33;10.10;;;6.57;;
24739;SDS011;45234;48.148;17.128;2023-11-19T00:03:01;8.60;;;6.03;;
24739;SDS011;45234;48.148;17.128;2023-11-19T00:05:28;9.95;;;5.90;;
24739;SDS011;45234;48.148;17.128;2023-11-19T00:07:55;10.60;;;6.32;;
24739;SDS011;45234;48.148;17.128;2023-11-19T00:10:22;9.50;;;6.35;;
24739;SDS011;45234;48.148;17.128;2023-11-19T00:12:49;9.55;;;6.60;;
24739;SDS011;45234;48.148;17.128;2023-11-19T00:15:17;8.65;;;5.80;;
24739;SDS011;45234;48.148;17.128;2023-11-19T00:17:45;13.10;;;7.85;;
24739;SDS011;45234;48.148;17.128;2023-11-19T00:20:16;13.77;;;7.90;;
24739;SDS011;45234;48.148;17.128;2023-11-19T00:22:44;12.18;;;7.78;;
24739;SDS011;45234;48.148;17.128;2023-11-19T00:25:16;13.43;;;8.82;;
24739;SDS011;45234;48.148;17.128;2023-11-19T00:27:44;13.52;;;8.63;;
24739;SDS011;45234;48.148;17.128;2023-11-19T00:30:11;13.70;;;9.35;;
24739;SDS011;45234;48.148;17.128;2023-11-19T00:32:40;17.20;;;9.60;;
24739;SDS011;45234;48.148;17.128;2023-11-19T00:35:08;12.40;;;9.07;;
24739;SDS011;45234;48.148;17.128;2023-11-19T00:37:41;16.75;;;9.07;;
24739;SDS011;45234;48.148;17.128;2023-11-19T00:40:12;11.80;;;8.32;;
24739;SDS011;45234;48.148;17.128;2023-11-19T00:42:39;12.75;;;8.50;;
24739;SDS011;45234;48.148;17.128;2023-11-19T00:45:06;11.48;;;8.43;;
24739;SDS011;45234;48.148;17.128;2023-11-19T00:47:35;13.45;;;9.15;;
24739;SDS011;45234;48.148;17.128;2023-11-19T00:50:03;14.90;;;9.70;;
24739;SDS011;45234;48.148;17.128;2023-11-19T00:52:30;13.07;;;9.25;;
24739;SDS011;45234;48.148;17.128;2023-11-19T00:54:57;15.63;;;9.45;;
24739;SDS011;45234;48.148;17.128;2023-11-19T00:57:24;14.15;;;9.40;;
24739;SDS011;45234;48.148;17.128;2023-11-19T00:59:52;15.02;;;9.65;;
24739;SDS011;45234;48.148;17.128;2023-11-19T01:02:19;12.45;;;9.48;;
24739;SDS011;45234;48.148;17.128;2023-11-19T01:04:46;14.88;;;9.93;;
24739;SDS011;45234;48.148;17.128;2023-11-19T01:07:13;15.68;;;10.38;;
24739;SDS011;45234;48.148;17.128;2023-11-19T01:09:43;20.40;;;12.38;;
24739;SDS011;45234;48.148;17.128;2023-11-19T01:12:10;19.77;;;12.43;;
24739;SDS011;45234;48.148;17.128;2023-11-19T01:14:38;18.52;;;12.15;;
24739;SDS011;45234;48.148;17.128;2023-11-19T01:17:05;16.60;;;10.90;;
24739;SDS011;45234;48.148;17.128;2023-11-19T01:19:33;17.60;;;11.30;;
24739;SDS011;45234;48.148;17.128;2023-11-19T01:22:00;20.05;;;12.70;;
24739;SDS011;45234;48.148;17.128;2023-11-19T01:24:27;19.33;;;12.23;;
24739;SDS011;45234;48.148;17.128;2023-11-19T01:26:57;18.33;;;12.18;;
24739;SDS011;45234;48.148;17.128;2023-11-19T01:29:26;18.55;;;11.35;;
24739;SDS011;45234;48.148;17.128;2023-11-19T01:31:52;19.52;;;12.25;;
24739;SDS011;45234;48.148;17.128;2023-11-19T01:34:19;17.58;;;11.88;;
24739;SDS011;45234;48.148;17.128;2023-11-19T01:36:46;17.98;;;11.77;;
24739;SDS011;45234;48.148;17.128;2023-11-19T01:39:15;17.77;;;11.63;;
24739;SDS011;45234;48.148;17.128;2023-11-19T01:41:42;18.25;;;10.93;;
24739;SDS011;45234;48.148;17.128;2023-11-19T01:44:09;19.63;;;12.90;;
24739;SDS011;45234;48.148;17.128;2023-11-19T01:46:40;19.70;;;12.55;;
24739;SDS011;45234;48.148;17.128;2023-11-19T01:49:09;18.83;;;11.43;;
24739;SDS011;45234;48.148;17.128;2023-11-19T01:51:38;17.77;;;11.90;;
24739;SDS011;45234;48.148;17.128;2023-11-19T01:54:06;18.73;;;12.07;;
24739;SDS011;45234;48.148;17.128;2023-11-19T01:56:34;17.85;;;11.48;;
24739;SDS011;45234;48.148;17.128;2023-11-19T01:59:01;16.02;;;10.40;;
24739;SDS011;45234;48.148;17.128;2023-11-19T02:01:29;18.50;;;12.00;;
24739;SDS011;45234;48.148;17.128;2023-11-19T02:03:58;17.00;;;10.82;;
24739;SDS011;45234;48.148;17.128;2023-11-19T02:06:26;17.85;;;12.05;;
24739;SDS011;45234;48.148;17.128;2023-11-19T02:08:54;15.73;;;10.85;;
24739;SDS011;45234;48.148;17.128;2023-11-19T02:11:21;17.77;;;11.18;;
24739;SDS011;45234;48.148;17.128;2023-11-19T02:13:48;16.02;;;10.55;;
24739;SDS011;45234;48.148;17.128;2023-11-19T02:16:15;15.50;;;11.00;;
24739;SDS011;45234;48.148;17.128;2023-11-19T02:18:42;15.63;;;11.15;;
24739;SDS011;45234;48.148;17.128;2023-11-19T02:21:09;18.08;;;11.35;;
24739;SDS011;45234;48.148;17.128;2023-11-19T02:23:36;16.98;;;11.68;;
24739;SDS011;45234;48.148;17.128;2023-11-19T02:28:43;17.85;;;11.20;;
24739;SDS011;45234;48.148;17.128;2023-11-19T02:31:10;19.95;;;12.20;;
24739;SDS011;45234;48.148;17.128;2023-11-19T02:33:38;16.70;;;11.50;;
24739;SDS011;45234;48.148;17.128;2023-11-19T02:36:06;16.65;;;11.50;;
24739;SDS011;45234;48.148;17.128;2023-11-19T02:38:34;18.92;;;11.48;;
24739;SDS011;45234;48.148;17.128;2023-11-19T02:41:05;16.25;;;11.05;;
24739;SDS011;45234;48.148;17.128;2023-11-19T02:43:33;15.65;;;11.52;;
24739;SDS011;45234;48.148;17.128;2023-11-19T02:46:03;17.45;;;10.95;;
24739;SDS011;45234;48.148;17.128;2023-11-19T02:48:37;18.05;;;10.80;;
24739;SDS011;45234;48.148;17.128;2023-11-19T02:51:04;15.25;;;10.38;;
24739;SDS011;45234;48.148;17.128;2023-11-19T02:53:36;15.07;;;10.50;;
24739;SDS011;45234;48.148;17.128;2023-11-19T02:56:04;18.83;;;10.38;;
24739;SDS011;45234;48.148;17.128;2023-11-19T02:58:38;16.05;;;10.77;;
24739;SDS011;45234;48.148;17.128;2023-11-19T03:01:05;13.10;;;9.35;;
24739;SDS011;45234;48.148;17.128;2023-11-19T03:03:49;12.43;;;9.27;;
24739;SDS011;45234;48.148;17.128;2023-11-19T03:06:28;14.57;;;9.65;;
24739;SDS011;45234;48.148;17.128;2023-11-19T03:08:56;15.57;;;9.88;;
24739;SDS011;45234;48.148;17.128;2023-11-19T03:11:23;13.73;;;9.40;;
24739;SDS011;45234;48.148;17.128;2023-11-19T03:13:50;13.93;;;8.82;;
24739;SDS011;45234;48.148;17.128;2023-11-19T03:16:17;13.40;;;9.30;;
24739;SDS011;45234;48.148;17.128;2023-11-19T03:18:44;12.18;;;9.35;;
24739;SDS011;45234;48.148;17.128;2023-11-19T03:21:12;13.05;;;8.82;;
24739;SDS011;45234;48.148;17.128;2023-11-19T03:23:39;12.02;;;7.90;;
24739;SDS011;45234;48.148;17.128;2023-11-19T03:26:07;10.98;;;8.50;;
24739;SDS011;45234;48.148;17.128;2023-11-19T03:28:36;13.10;;;8.80;;
24739;SDS011;45234;48.148;17.128;2023-11-19T03:31:06;11.85;;;7.55;;
24739;SDS011;45234;48.148;17.128;2023-11-19T03:33:34;9.48;;;7.35;;
24739;SDS011;45234;48.148;17.128;2023-11-19T03:36:03;11.38;;;7.57;;
24739;SDS011;45234;48.148;17.128;2023-11-19T03:38:31;11.85;;;8.80;;
24739;SDS011;45234;48.148;17.128;2023-11-19T03:40:58;12.48;;;8.57;;
24739;SDS011;45234;48.148;17.128;2023-11-19T03:43:25;12.00;;;8.32;;
24739;SDS011;45234;48.148;17.128;2023-11-19T03:45:53;15.25;;;10.20;;
24739;SDS011;45234;48.148;17.128;2023-11-19T03:48:20;15.88;;;10.63;;
24739;SDS011;45234;48.148;17.128;2023-11-19T03:50:48;14.93;;;10.90;;
24739;SDS011;45234;48.148;17.128;2023-11-19T03:53:15;14.65;;;10.48;;
24739;SDS011;45234;48.148;17.128;2023-11-19T03:55:41;15.68;;;10.73;;
24739;SDS011;45234;48.148;17.128;2023-11-19T03:58:08;17.25;;;11.50;;
24739;SDS011;45234;48.148;17.128;2023-11-19T04:00:35;16.98;;;11.10;;
24739;SDS011;45234;48.148;17.128;2023-11-19T04:03:02;16.27;;;10.82;;
24739;SDS011;45234;48.148;17.128;2023-11-19T04:05:30;15.50;;;10.45;;
24739;SDS011;45234;48.148;17.128;2023-11-19T04:07:57;16.15;;;11.00;;
24739;SDS011;45234;48.148;17.128;2023-11-19T04:10:24;16.35;;;10.90;;
24739;SDS011;45234;48.148;17.128;2023-11-19T04:12:55;15.13;;;10.73;;
24739;SDS011;45234;48.148;17.128;2023-11-19T04:15:22;16.05;;;11.02;;
24739;SDS011;45234;48.148;17.128;2023-11-19T04:17:50;16.10;;;10.93;;
24739;SDS011;45234;48.148;17.128;2023-11-19T04:20:17;13.57;;;9.73;;
24739;SDS011;45234;48.148;17.128;2023-11-19T04:22:45;15.73;;;10.65;;
24739;SDS011;45234;48.148;17.128;2023-11-19T04:25:12;14.90;;;10.10;;
24739;SDS011;45234;48.148;17.128;2023-11-19T04:27:40;16.55;;;10.38;;
24739;SDS011;45234;48.148;17.128;2023-11-19T04:30:07;16.55;;;10.50;;
24739;SDS011;45234;48.148;17.128;2023-11-19T04:32:37;14.38;;;9.57;;
24739;SDS011;45234;48.148;17.128;2023-11-19T04:35:04;16.40;;;10.35;;
24739;SDS011;45234;48.148;17.128;2023-11-19T04:37:32;13.82;;;9.85;;
24739;SDS011;45234;48.148;17.128;2023-11-19T04:40:00;15.98;;;10.43;;
24739;SDS011;45234;48.148;17.128;2023-11-19T04:42:28;13.57;;;10.35;;
24739;SDS011;45234;48.148;17.128;2023-11-19T04:44:55;15.48;;;10.45;;
24739;SDS011;45234;48.148;17.128;2023-11-19T04:47:22;15.95;;;10.45;;
24739;SDS011;45234;48.148;17.128;2023-11-19T04:49:49;23.42;;;14.45;;
24739;SDS011;45234;48.148;17.128;2023-11-19T04:52:18;21.52;;;14.52;;
24739;SDS011;45234;48.148;17.128;2023-11-19T04:54:45;23.38;;;14.68;;
24739;SDS011;45234;48.148;17.128;2023-11-19T04:57:12;21.80;;;13.77;;
24739;SDS011;45234;48.148;17.128;2023-11-19T04:59:39;23.05;;;15.20;;
24739;SDS011;45234;48.148;17.128;2023-11-19T05:02:08;21.25;;;14.27;;
24739;SDS011;45234;48.148;17.128;2023-11-19T05:04:35;22.80;;;13.93;;
24739;SDS011;45234;48.148;17.128;2023-11-19T05:07:03;22.90;;;14.35;;
24739;SDS011;45234;48.148;17.128;2023-11-19T05:09:31;21.63;;;12.77;;
24739;SDS011;45234;48.148;17.128;2023-11-19T05:11:58;21.60;;;12.55;;
24739;SDS011;45234;48.148;17.128;2023-11-19T05:14:25;21.48;;;14.07;;
24739;SDS011;45234;48.148;17.128;2023-11-19T05:16:52;23.02;;;13.38;;
24739;SDS011;45234;48.148;17.128;2023-11-19T05:19:19;18.85;;;11.68;;
24739;SDS011;45234;48.148;17.128;2023-11-19T05:21:46;20.88;;;13.68;;
24739;SDS011;45234;48.148;17.128;2023-11-19T05:24:13;26.15;;;13.63;;
24739;SDS011;45234;48.148;17.128;2023-11-19T05:26:40;21.33;;;12.80;;
24739;SDS011;45234;48.148;17.128;2023-11-19T05:29:07;20.42;;;13.02;;
24739;SDS011;45234;48.148;17.128;2023-11-19T05:31:34;18.50;;;12.77;;
24739;SDS011;45234;48.148;17.128;2023-11-19T05:34:03;18.92;;;12.50;;
24739;SDS011;45234;48.148;17.128;2023-11-19T05:36:30;20.38;;;12.55;;
24739;SDS011;45234;48.148;17.128;2023-11-19T05:38:57;17.95;;;11.88;;
24739;SDS011;45234;48.148;17.128;2023-11-19T05:41:24;16.20;;;10.85;;
24739;SDS011;45234;48.148;17.128;2023-11-19T05:43:51;14.45;;;10.23;;
24739;SDS011;45234;48.148;17.128;2023-11-19T05:46:18;17.58;;;10.38;;
24739;SDS011;45234;48.148;17.128;2023-11-19T05:48:46;16.90;;;11.63;;
24739;SDS011;45234;48.148;17.128;2023-11-19T05:51:14;17.42;;;10.45;;
24739;SDS011;45234;48.148;17.128;2023-11-19T05:53:41;15.05;;;10.32;;
24739;SDS011;45234;48.148;17.128;2023-11-19T05:56:08;16.95;;;10.93;;
24739;SDS011;45234;48.148;17.128;2023-11-19T05:58:35;17.30;;;11.65;;
24739;SDS011;45234;48.148;17.128;2023-11-19T06:01:03;17.90;;;11.35;;
24739;SDS011;45234;48.148;17.128;2023-11-19T06:03:34;17.17;;;11.57;;
24739;SDS011;45234;48.148;17.128;2023-11-19T06:06:02;15.15;;;11.35;;
24739;SDS011;45234;48.148;17.128;2023-11-19T06:08:31;17.15;;;11.63;;
24739;SDS011;45234;48.148;17.128;2023-11-19T06:10:58;19.17;;;11.90;;
24739;SDS011;45234;48.148;17.128;2023-11-19T06:13:27;16.75;;;11.25;;
24739;SDS011;45234;48.148;17.128;2023-11-19T06:15:57;18.98;;;12.07;;
24739;SDS011;45234;48.148;17.128;2023-11-19T06:18:24;17.27;;;12.07;;
24739;SDS011;45234;48.148;17.128;2023-11-19T06:20:51;18.77;;;12.20;;
24739;SDS011;45234;48.148;17.128;2023-11-19T06:23:18;16.88;;;11.57;;
24739;SDS011;45234;48.148;17.128;2023-11-19T06:25:45;22.30;;;12.57;;
24739;SDS011;45234;48.148;17.128;2023-11-19T06:28:12;17.23;;;12.07;;
24739;SDS011;45234;48.148;17.128;2023-11-19T06:30:39;17.33;;;11.32;;
24739;SDS011;45234;48.148;17.128;2023-11-19T06:33:08;19.70;;;13.10;;
24739;SDS011;45234;48.148;17.128;2023-11-19T06:35:38;17.67;;;11.98;;
24739;SDS011;45234;48.148;17.128;2023-11-19T06:38:05;17.27;;;11.88;;
24739;SDS011;45234;48.148;17.128;2023-11-19T06:40:35;20.00;;;13.15;;
24739;SDS011;45234;48.148;17.128;2023-11-19T06:43:02;18.80;;;11.77;;
24739;SDS011;45234;48.148;17.128;2023-11-19T06:45:30;20.05;;;12.82;;
24739;SDS011;45234;48.148;17.128;2023-11-19T06:47:57;23.98;;;12.77;;
24739;SDS011;45234;48.148;17.128;2023-11-19T06:50:26;18.88;;;12.25;;
24739;SDS011;45234;48.148;17.128;2023-11-19T06:52:54;20.65;;;13.18;;
24739;SDS011;45234;48.148;17.128;2023-11-19T06:55:21;21.40;;;12.88;;
24739;SDS011;45234;48.148;17.128;2023-11-19T06:57:48;18.58;;;12.40;;
24739;SDS011;45234;48.148;17.128;2023-11-19T07:00:15;22.52;;;13.20;;
24739;SDS011;45234;48.148;17.128;2023-11-19T07:02:44;19.83;;;13.20;;
24739;SDS011;45234;48.148;17.128;2023-11-19T07:05:11;21.45;;;13.95;;
24739;SDS011;45234;48.148;17.128;2023-11-19T07:07:39;22.60;;;14.50;;
24739;SDS011;45234;48.148;17.128;2023-11-19T07:10:07;26.40;;;16.70;;
24739;SDS011;45234;48.148;17.128;2023-11-19T07:12:35;32.00;;;19.48;;
24739;SDS011;45234;48.148;17.128;2023-11-19T07:15:03;30.35;;;18.98;;
24739;SDS011;45234;48.148;17.128;2023-11-19T07:17:31;30.90;;;18.15;;
24739;SDS011;45234;48.148;17.128;2023-11-19T07:19:58;31.90;;;19.02;;
24739;SDS011;45234;48.148;17.128;2023-11-19T07:22:28;27.15;;;18.08;;
24739;SDS011;45234;48.148;17.128;2023-11-19T07:24:55;27.00;;;17.40;;
24739;SDS011;45234;48.148;17.128;2023-11-19T07:27:22;26.90;;;17.15;;
24739;SDS011;45234;48.148;17.128;2023-11-19T07:29:50;26.60;;;17.17;;
24739;SDS011;45234;48.148;17.128;2023-11-19T07:32:17;25.25;;;16.20;;
24739;SDS011;45234;48.148;17.128;2023-11-19T07:34:44;24.70;;;16.10;;
24739;SDS011;45234;48.148;17.128;2023-11-19T07:37:11;23.63;;;14.88;;
24739;SDS011;45234;48.148;17.128;2023-11-19T07:39:38;21.77;;;14.57;;
24739;SDS011;45234;48.148;17.128;2023-11-19T07:42:07;22.15;;;14.70;;
24739;SDS011;45234;48.148;17.128;2023-11-19T07:44:35;18.85;;;13.38;;
24739;SDS011;45234;48.148;17.128;2023-11-19T07:47:03;20.40;;;13.45;;
24739;SDS011;45234;48.148;17.128;2023-11-19T07:49:30;20.42;;;13.57;;
24739;SDS011;45234;48.148;17.128;2023-11-19T07:51:57;18.75;;;13.60;;
24739;SDS011;45234;48.148;17.128;2023-11-19T07:54:24;24.58;;;15.82;;
24739;SDS011;45234;48.148;17.128;2023-11-19T07:56:51;13.93;;;8.63;;
24739;SDS011;45234;48.148;17.128;2023-11-19T07:59:20;13.02;;;9.35;;
24739;SDS011;45234;48.148;17.128;2023-11-19T08:01:48;10.15;;;8.00;;
24739;SDS011;45234;48.148;17.128;2023-11-19T08:04:15;14.48;;;9.32;;
24739;SDS011;45234;48.148;17.128;2023-11-19T08:06:42;13.10;;;8.82;;
24739;SDS011;45234;48.148;17.128;2023-11-19T08:09:11;14.95;;;8.93;;
24739;SDS011;45234;48.148;17.128;2023-11-19T08:11:40;13.10;;;7.82;;
24739;SDS011;45234;48.148;17.128;2023-11-19T08:14:08;12.75;;;9.10;;
24739;SDS011;45234;48.148;17.128;2023-11-19T08:16:36;27.88;;;9.98;;
24739;SDS011;45234;48.148;17.128;2023-11-19T08:19:04;21.10;;;8.57;;
24739;SDS011;45234;48.148;17.128;2023-11-19T08:21:31;11.93;;;8.48;;
24739;SDS011;45234;48.148;17.128;2023-11-19T08:23:59;13.10;;;8.32;;
24739;SDS011;45234;48.148;17.128;2023-11-19T08:26:26;12.90;;;7.97;;
24739;SDS011;45234;48.148;17.128;2023-11-19T08:28:52;11.73;;;8.00;;
24739;SDS011;45234;48.148;17.128;2023-11-19T08:31:20;11.57;;;7.88;;
24739;SDS011;45234;48.148;17.128;2023-11-19T08:33:46;8.13;;;7.20;;
24739;SDS011;45234;48.148;17.128;2023-11-19T08:36:17;10.10;;;7.90;;
24739;SDS011;45234;48.148;17.128;2023-11-19T08:38:44;15.27;;;7.72;;
24739;SDS011;45234;48.148;17.128;2023-11-19T08:41:11;13.35;;;8.13;;
24739;SDS011;45234;48.148;17.128;2023-11-19T08:43:38;13.43;;;7.25;;
24739;SDS011;45234;48.148;17.128;2023-11-19T08:46:09;11.70;;;7.70;;
24739;SDS011;45234;48.148;17.128;2023-11-19T08:48:37;13.52;;;9.02;;
24739;SDS011;45234;48.148;17.128;2023-11-19T08:51:05;13.00;;;9.23;;
24739;SDS011;45234;48.148;17.128;2023-11-19T08:53:32;11.65;;;7.85;;
24739;SDS011;45234;48.148;17.128;2023-11-19T08:56:00;13.00;;;8.35;;
24739;SDS011;45234;48.148;17.128;2023-11-19T08:58:29;15.15;;;10.20;;
24739;SDS011;45234;48.148;17.128;2023-11-19T09:00:56;12.07;;;9.30;;
24739;SDS011;45234;48.148;17.128;2023-11-19T09:03:24;10.43;;;7.70;;
24739;SDS011;45234;48.148;17.128;2023-11-19T09:05:53;10.98;;;8.63;;
24739;SDS011;45234;48.148;17.128;2023-11-19T09:08:20;12.95;;;8.65;;
24739;SDS011;45234;48.148;17.128;2023-11-19T09:10:47;11.75;;;8.35;;
24739;SDS011;45234;48.148;17.128;2023-11-19T09:13:14;18.38;;;7.80;;
24739;SDS011;45234;48.148;17.128;2023-11-19T09:15:41;12.55;;;8.75;;
24739;SDS011;45234;48.148;17.128;2023-11-19T09:18:08;12.88;;;8.27;;
24739;SDS011;45234;48.148;17.128;2023-11-19T09:20:35;12.88;;;8.43;;
24739;SDS011;45234;48.148;17.128;2023-11-19T09:23:05;11.25;;;8.48;;
24739;SDS011;45234;48.148;17.128;2023-11-19T09:25:32;10.90;;;7.38;;
24739;SDS011;45234;48.148;17.128;2023-11-19T09:28:02;9.55;;;7.80;;
24739;SDS011;45234;48.148;17.128;2023-11-19T09:30:29;12.25;;;8.30;;
24739;SDS011;45234;48.148;17.128;2023-11-19T09:33:00;11.48;;;8.23;;
24739;SDS011;45234;48.148;17.128;2023-11-19T09:35:27;11.80;;;8.77;;
24739;SDS011;45234;48.148;17.128;2023-11-19T09:37:54;10.75;;;7.90;;
24739;SDS011;45234;48.148;17.128;2023-11-19T09:40:21;12.80;;;8.40;;
24739;SDS011;45234;48.148;17.128;2023-11-19T09:42:48;12.00;;;8.68;;
24739;SDS011;45234;48.148;17.128;2023-11-19T09:45:15;12.15;;;8.57;;
24739;SDS011;45234;48.148;17.128;2023-11-19T09:47:47;11.43;;;8.35;;
24739;SDS011;45234;48.148;17.128;2023-11-19T09:50:19;12.68;;;8.98;;
24739;SDS011;45234;48.148;17.128;2023-11-19T09:52:47;10.10;;;8.38;;
24739;SDS011;45234;48.148;17.128;2023-11-19T09:55:14;11.07;;;8.35;;
24739;SDS011;45234;48.148;17.128;2023-11-19T09:57:41;12.63;;;8.52;;
24739;SDS011;45234;48.148;17.128;2023-11-19T10:00:10;10.32;;;7.70;;
24739;SDS011;45234;48.148;17.128;2023-11-19T10:02:41;9.70;;;7.88;;
24739;SDS011;45234;48.148;17.128;2023-11-19T10:05:13;10.32;;;8.13;;
24739;SDS011;45234;48.148;17.128;2023-11-19T10:07:41;10.02;;;7.90;;
24739;SDS011;45234;48.148;17.128;2023-11-19T10:10:08;10.95;;;8.50;;
24739;SDS011;45234;48.148;17.128;2023-11-19T10:12:39;11.55;;;8.13;;
24739;SDS011;45234;48.148;17.128;2023-11-19T10:15:23;12.85;;;8.43;;
24739;SDS011;45234;48.148;17.128;2023-11-19T10:17:56;11.35;;;8.70;;
24739;SDS011;45234;48.148;17.128;2023-11-19T10:20:24;9.70;;;7.60;;
24739;SDS011;45234;48.148;17.128;2023-11-19T10:22:54;11.23;;;7.60;;
24739;SDS011;45234;48.148;17.128;2023-11-19T10:25:22;10.23;;;8.10;;
24739;SDS011;45234;48.148;17.128;2023-11-19T10:27:51;8.80;;;7.65;;
24739;SDS011;45234;48.148;17.128;2023-11-19T10:30:22;11.02;;;8.25;;
24739;SDS011;45234;48.148;17.128;2023-11-19T10:33:11;8.60;;;7.35;;
24739;SDS011;45234;48.148;17.128;2023-11-19T10:35:57;12.57;;;8.57;;
24739;SDS011;45234;48.148;17.128;2023-11-19T10:38:28;13.25;;;8.23;;
24739;SDS011;45234;48.148;17.128;2023-11-19T10:40:56;10.48;;;8.45;;
24739;SDS011;45234;48.148;17.128;2023-11-19T10:43:25;11.02;;;7.80;;
24739;SDS011;45234;48.148;17.128;2023-11-19T10:45:52;11.75;;;8.63;;
24739;SDS011;45234;48.148;17.128;2023-11-19T10:48:19;10.52;;;8.35;;
24739;SDS011;45234;48.148;17.128;2023-11-19T10:50:49;11.98;;;8.82;;
24739;SDS011;45234;48.148;17.128;2023-11-19T10:53:19;11.80;;;8.88;;
24739;SDS011;45234;48.148;17.128;2023-11-19T10:55:49;12.18;;;8.77;;
24739;SDS011;45234;48.148;17.128;2023-11-19T10:58:17;12.05;;;9.00;;
24739;SDS011;45234;48.148;17.128;2023-11-19T11:00:46;11.45;;;8.77;;
24739;SDS011;45234;48.148;17.128;2023-11-19T11:03:22;12.90;;;8.63;;
24739;SDS011;45234;48.148;17.128;2023-11-19T11:05:53;11.20;;;8.55;;
24739;SDS011;45234;48.148;17.128;2023-11-19T11:08:21;12.95;;;9.45;;
24739;SDS011;45234;48.148;17.128;2023-11-19T11:10:55;14.18;;;9.45;;
24739;SDS011;45234;48.148;17.128;2023-11-19T11:13:26;12.38;;;9.05;;
24739;SDS011;45234;48.148;17.128;2023-11-19T11:15:57;12.98;;;9.13;;
24739;SDS011;45234;48.148;17.128;2023-11-19T11:18:24;11.80;;;8.77;;
24739;SDS011;45234;48.148;17.128;2023-11-19T11:20:57;11.52;;;8.50;;
24739;SDS011;45234;48.148;17.128;2023-11-19T11:29:04;11.90;;;9.20;;
24739;SDS011;45234;48.148;17.128;2023-11-19T11:39:46;15.10;;;9.45;;
24739;SDS011;45234;48.148;17.128;2023-11-19T11:45:09;13.68;;;9.52;;
24739;SDS011;45234;48.148;17.128;2023-11-19T11:50:13;12.88;;;9.40;;
24739;SDS011;45234;48.148;17.128;2023-11-19T11:55:29;15.40;;;10.00;;
24739;SDS011;45234;48.148;17.128;2023-11-19T11:58:02;13.45;;;8.88;;
24739;SDS011;45234;48.148;17.128;2023-11-19T12:00:31;11.27;;;9.10;;
24739;SDS011;45234;48.148;17.128;2023-11-19T12:03:04;12.73;;;9.75;;
24739;SDS011;45234;48.148;17.128;2023-11-19T12:05:32;12.68;;;9.20;;
24739;SDS011;45234;48.148;17.128;2023-11-19T12:08:13;12.48;;;9.63;;
24739;SDS011;45234;48.148;17.128;2023-11-19T12:13:13;12.82;;;9.45;;
24739;SDS011;45234;48.148;17.128;2023-11-19T12:18:24;10.98;;;8.63;;
24739;SDS011;45234;48.148;17.128;2023-11-19T12:20:55;14.23;;;10.02;;
24739;SDS011;45234;48.148;17.128;2023-11-19T12:23:22;12.13;;;8.80;;
24739;SDS011;45234;48.148;17.128;2023-11-19T12:25:50;11.30;;;8.98;;
24739;SDS011;45234;48.148;17.128;2023-11-19T12:28:17;13.68;;;9.55;;
24739;SDS011;45234;48.148;17.128;2023-11-19T12:30:44;13.07;;;9.30;;
24739;SDS011;45234;48.148;17.128;2023-11-19T12:33:13;15.25;;;10.02;;
24739;SDS011;45234;48.148;17.128;2023-11-19T12:35:41;13.60;;;9.88;;
24739;SDS011;45234;48.148;17.128;2023-11-19T12:38:19;12.02;;;9.35;;
24739;SDS011;45234;48.148;17.128;2023-11-19T12:41:02;15.85;;;10.48;;
24739;SDS011;45234;48.148;17.128;2023-11-19T12:43:32;15.27;;;11.10;;
24739;SDS011;45234;48.148;17.128;2023-11-19T12:46:19;13.75;;;10.15;;
24739;SDS011;45234;48.148;17.128;2023-11-19T12:48:50;13.38;;;9.73;;
24739;SDS011;45234;48.148;17.128;2023-11-19T12:51:18;13.63;;;10.10;;
24739;SDS011;45234;48.148;17.128;2023-11-19T12:53:49;14.63;;;11.82;;
24739;SDS011;45234;48.148;17.128;2023-11-19T12:56:20;16.08;;;10.98;;
24739;SDS011;45234;48.148;17.128;2023-11-19T12:58:48;12.98;;;9.90;;
24739;SDS011;45234;48.148;17.128;2023-11-19T13:01:18;13.30;;;9.25;;
24739;SDS011;45234;48.148;17.128;2023-11-19T13:03:46;14.85;;;9.70;;
24739;SDS011;45234;48.148;17.128;2023-11-19T13:06:15;13.40;;;10.45;;
24739;SDS011;45234;48.148;17.128;2023-11-19T13:11:11;12.60;;;9.48;;
24739;SDS011;45234;48.148;17.128;2023-11-19T13:13:54;16.45;;;10.38;;
24739;SDS011;45234;48.148;17.128;2023-11-19T13:16:26;14.43;;;10.57;;
24739;SDS011;45234;48.148;17.128;2023-11-19T13:18:53;13.85;;;8.98;;
24739;SDS011;45234;48.148;17.128;2023-11-19T13:21:21;13.25;;;10.25;;
24739;SDS011;45234;48.148;17.128;2023-11-19T13:23:48;13.02;;;9.88;;
24739;SDS011;45234;48.148;17.128;2023-11-19T13:26:15;12.40;;;10.00;;
24739;SDS011;45234;48.148;17.128;2023-11-19T13:28:42;15.50;;;11.27;;
24739;SDS011;45234;48.148;17.128;2023-11-19T13:31:09;16.10;;;10.68;;
24739;SDS011;45234;48.148;17.128;2023-11-19T13:33:36;14.18;;;10.45;;
24739;SDS011;45234;48.148;17.128;2023-11-19T13:36:04;14.20;;;10.20;;
24739;SDS011;45234;48.148;17.128;2023-11-19T13:38:36;14.02;;;10.52;;
24739;SDS011;45234;48.148;17.128;2023-11-19T13:41:03;12.32;;;9.90;;
24739;SDS011;45234;48.148;17.128;2023-11-19T13:43:30;17.00;;;12.20;;
24739;SDS011;45234;48.148;17.128;2023-11-19T13:45:58;14.70;;;11.07;;
24739;SDS011;45234;48.148;17.128;2023-11-19T13:48:25;16.02;;;11.18;;
24739;SDS011;45234;48.148;17.128;2023-11-19T13:50:53;14.68;;;11.20;;
24739;SDS011;45234;48.148;17.128;2023-11-19T13:53:23;14.15;;;10.98;;
24739;SDS011;45234;48.148;17.128;2023-11-19T13:55:50;18.27;;;12.25;;
24739;SDS011;45234;48.148;17.128;2023-11-19T13:58:17;15.90;;;11.88;;
24739;SDS011;45234;48.148;17.128;2023-11-19T14:00:44;15.93;;;11.80;;
24739;SDS011;45234;48.148;17.128;2023-11-19T14:03:11;17.00;;;11.55;;
24739;SDS011;45234;48.148;17.128;2023-11-19T14:05:38;16.30;;;11.70;;
24739;SDS011;45234;48.148;17.128;2023-11-19T14:08:07;17.63;;;11.77;;
24739;SDS011;45234;48.148;17.128;2023-11-19T14:10:50;17.02;;;12.80;;
24739;SDS011;45234;48.148;17.128;2023-11-19T14:13:17;17.67;;;12.35;;
24739;SDS011;45234;48.148;17.128;2023-11-19T14:15:44;19.00;;;13.05;;
24739;SDS011;45234;48.148;17.128;2023-11-19T14:18:15;18.55;;;13.25;;
24739;SDS011;45234;48.148;17.128;2023-11-19T14:20:42;20.23;;;13.00;;
24739;SDS011;45234;48.148;17.128;2023-11-19T14:23:10;19.55;;;13.75;;
24739;SDS011;45234;48.148;17.128;2023-11-19T14:25:37;18.83;;;13.38;;
24739;SDS011;45234;48.148;17.128;2023-11-19T14:28:04;17.73;;;12.68;;
24739;SDS011;45234;48.148;17.128;2023-11-19T14:30:31;17.20;;;12.07;;
24739;SDS011;45234;48.148;17.128;2023-11-19T14:33:00;21.02;;;13.18;;
24739;SDS011;45234;48.148;17.128;2023-11-19T14:35:29;20.23;;;13.55;;
24739;SDS011;45234;48.148;17.128;2023-11-19T14:37:56;16.50;;;12.60;;
24739;SDS011;45234;48.148;17.128;2023-11-19T14:40:23;18.80;;;13.43;;
24739;SDS011;45234;48.148;17.128;2023-11-19T14:42:53;21.80;;;14.77;;
24739;SDS011;45234;48.148;17.128;2023-11-19T14:45:20;20.70;;;13.95;;
24739;SDS011;45234;48.148;17.128;2023-11-19T14:47:48;17.50;;;12.82;;
24739;SDS011;45234;48.148;17.128;2023-11-19T14:50:16;23.02;;;13.82;;
24739;SDS011;45234;48.148;17.128;2023-11-19T14:52:43;20.20;;;14.00;;
24739;SDS011;45234;48.148;17.128;2023-11-19T14:55:10;19.23;;;13.48;;